sensor_id;sensor_type;location;lat;lon;timestamp;P1;durP1;ratioP1;P2;durP2;ratioP2
74995;SDS011;63545;51.690;5.202;2023-12-07T00:01:02;28.63;;;15.30;;
74995;SDS011;63545;51.690;5.202;2023-12-07T00:03:27;28.03;;;15.33;;
74995;SDS011;63545;51.690;5.202;2023-12-07T00:05:53;28.13;;;15.47;;
74995;SDS011;63545;51.690;5.202;2023-12-07T00:08:18;32.20;;;16.70;;
74995;SDS011;63545;51.690;5.202;2023-12-07T00:10:43;30.97;;;16.03;;
74995;SDS011;63545;51.690;5.202;2023-12-07T00:13:09;30.00;;;15.13;;
74995;SDS011;63545;51.690;5.202;2023-12-07T00:15:34;26.80;;;16.10;;
74995;SDS011;63545;51.690;5.202;2023-12-07T00:17:59;29.50;;;15.27;;
74995;SDS011;63545;51.690;5.202;2023-12-07T00:20:25;27.95;;;15.15;;
74995;SDS011;63545;51.690;5.202;2023-12-07T00:22:51;45.50;;;15.73;;
74995;SDS011;63545;51.690;5.202;2023-12-07T00:25:16;58.80;;;15.55;;
74995;SDS011;63545;51.690;5.202;2023-12-07T00:27:41;58.47;;;15.68;;
74995;SDS011;63545;51.690;5.202;2023-12-07T00:30:07;173.17;;;16.77;;
74995;SDS011;63545;51.690;5.202;2023-12-07T00:32:33;216.80;;;16.42;;
74995;SDS011;63545;51.690;5.202;2023-12-07T00:34:59;249.97;;;16.17;;
74995;SDS011;63545;51.690;5.202;2023-12-07T00:37:24;164.97;;;15.97;;
74995;SDS011;63545;51.690;5.202;2023-12-07T00:39:49;119.70;;;15.17;;
74995;SDS011;63545;51.690;5.202;2023-12-07T00:42:15;120.73;;;13.70;;
74995;SDS011;63545;51.690;5.202;2023-12-07T00:44:40;96.80;;;13.73;;
74995;SDS011;63545;51.690;5.202;2023-12-07T00:47:06;68.20;;;14.65;;
74995;SDS011;63545;51.690;5.202;2023-12-07T00:49:31;89.60;;;14.60;;
74995;SDS011;63545;51.690;5.202;2023-12-07T00:51:57;129.93;;;15.00;;
74995;SDS011;63545;51.690;5.202;2023-12-07T00:54:22;201.97;;;16.13;;
74995;SDS011;63545;51.690;5.202;2023-12-07T00:56:47;119.90;;;14.37;;
74995;SDS011;63545;51.690;5.202;2023-12-07T00:59:13;83.87;;;14.23;;
74995;SDS011;63545;51.690;5.202;2023-12-07T01:01:38;170.45;;;16.02;;
74995;SDS011;63545;51.690;5.202;2023-12-07T01:04:04;109.33;;;14.43;;
74995;SDS011;63545;51.690;5.202;2023-12-07T01:06:30;42.92;;;16.40;;
74995;SDS011;63545;51.690;5.202;2023-12-07T01:08:56;101.43;;;17.48;;
74995;SDS011;63545;51.690;5.202;2023-12-07T01:11:21;88.33;;;17.70;;
74995;SDS011;63545;51.690;5.202;2023-12-07T01:13:46;72.33;;;19.17;;
74995;SDS011;63545;51.690;5.202;2023-12-07T01:16:12;82.00;;;18.57;;
74995;SDS011;63545;51.690;5.202;2023-12-07T01:18:37;67.63;;;18.57;;
74995;SDS011;63545;51.690;5.202;2023-12-07T01:21:02;80.93;;;19.50;;
74995;SDS011;63545;51.690;5.202;2023-12-07T01:23:28;69.30;;;17.23;;
74995;SDS011;63545;51.690;5.202;2023-12-07T01:25:53;55.60;;;17.10;;
74995;SDS011;63545;51.690;5.202;2023-12-07T01:28:19;47.23;;;16.67;;
74995;SDS011;63545;51.690;5.202;2023-12-07T01:30:44;101.80;;;18.37;;
74995;SDS011;63545;51.690;5.202;2023-12-07T01:33:09;54.93;;;17.27;;
74995;SDS011;63545;51.690;5.202;2023-12-07T01:35:35;49.60;;;17.27;;
74995;SDS011;63545;51.690;5.202;2023-12-07T01:38:00;51.85;;;17.42;;
74995;SDS011;63545;51.690;5.202;2023-12-07T01:40:25;43.50;;;17.00;;
74995;SDS011;63545;51.690;5.202;2023-12-07T01:42:51;45.60;;;17.23;;
74995;SDS011;63545;51.690;5.202;2023-12-07T01:45:17;30.50;;;16.80;;
74995;SDS011;63545;51.690;5.202;2023-12-07T01:47:43;31.73;;;16.20;;
74995;SDS011;63545;51.690;5.202;2023-12-07T01:50:09;35.67;;;16.90;;
74995;SDS011;63545;51.690;5.202;2023-12-07T01:52:35;34.80;;;16.85;;
74995;SDS011;63545;51.690;5.202;2023-12-07T01:55:03;31.95;;;16.33;;
74995;SDS011;63545;51.690;5.202;2023-12-07T01:57:30;34.45;;;16.27;;
74995;SDS011;63545;51.690;5.202;2023-12-07T01:59:55;35.67;;;16.97;;
74995;SDS011;63545;51.690;5.202;2023-12-07T02:02:21;41.23;;;17.93;;
74995;SDS011;63545;51.690;5.202;2023-12-07T02:04:46;35.33;;;16.53;;
74995;SDS011;63545;51.690;5.202;2023-12-07T02:07:12;32.92;;;17.38;;
74995;SDS011;63545;51.690;5.202;2023-12-07T02:09:37;34.25;;;16.50;;
74995;SDS011;63545;51.690;5.202;2023-12-07T02:12:02;41.00;;;16.57;;
74995;SDS011;63545;51.690;5.202;2023-12-07T02:14:28;34.37;;;16.53;;
74995;SDS011;63545;51.690;5.202;2023-12-07T02:16:57;37.20;;;17.55;;
74995;SDS011;63545;51.690;5.202;2023-12-07T02:22:17;117.18;;;17.75;;
74995;SDS011;63545;51.690;5.202;2023-12-07T02:24:53;119.72;;;16.55;;
74995;SDS011;63545;51.690;5.202;2023-12-07T02:30:06;78.07;;;15.75;;
74995;SDS011;63545;51.690;5.202;2023-12-07T02:32:32;50.93;;;14.97;;
74995;SDS011;63545;51.690;5.202;2023-12-07T02:34:57;33.50;;;15.55;;
74995;SDS011;63545;51.690;5.202;2023-12-07T02:37:24;26.93;;;14.77;;
74995;SDS011;63545;51.690;5.202;2023-12-07T02:39:53;29.25;;;15.40;;
74995;SDS011;63545;51.690;5.202;2023-12-07T02:42:20;32.22;;;16.23;;
74995;SDS011;63545;51.690;5.202;2023-12-07T02:44:47;29.58;;;15.27;;
74995;SDS011;63545;51.690;5.202;2023-12-07T02:47:13;28.70;;;15.80;;
74995;SDS011;63545;51.690;5.202;2023-12-07T02:49:39;27.23;;;15.87;;
74995;SDS011;63545;51.690;5.202;2023-12-07T02:52:04;26.65;;;14.57;;
74995;SDS011;63545;51.690;5.202;2023-12-07T02:54:29;30.10;;;16.05;;
74995;SDS011;63545;51.690;5.202;2023-12-07T02:56:55;28.27;;;15.37;;
74995;SDS011;63545;51.690;5.202;2023-12-07T02:59:20;64.37;;;19.93;;
74995;SDS011;63545;51.690;5.202;2023-12-07T03:01:45;85.17;;;20.40;;
74995;SDS011;63545;51.690;5.202;2023-12-07T03:04:11;152.77;;;24.13;;
74995;SDS011;63545;51.690;5.202;2023-12-07T03:06:36;130.65;;;24.88;;
74995;SDS011;63545;51.690;5.202;2023-12-07T03:09:02;175.70;;;22.83;;
74995;SDS011;63545;51.690;5.202;2023-12-07T03:11:28;169.25;;;26.52;;
74995;SDS011;63545;51.690;5.202;2023-12-07T03:13:53;184.77;;;25.85;;
74995;SDS011;63545;51.690;5.202;2023-12-07T03:16:18;263.60;;;27.73;;
74995;SDS011;63545;51.690;5.202;2023-12-07T03:18:44;218.17;;;26.97;;
74995;SDS011;63545;51.690;5.202;2023-12-07T03:21:09;214.13;;;27.47;;
74995;SDS011;63545;51.690;5.202;2023-12-07T03:23:35;224.53;;;27.50;;
74995;SDS011;63545;51.690;5.202;2023-12-07T03:26:00;208.45;;;27.23;;
74995;SDS011;63545;51.690;5.202;2023-12-07T03:28:26;132.83;;;26.47;;
74995;SDS011;63545;51.690;5.202;2023-12-07T03:30:52;206.82;;;27.38;;
74995;SDS011;63545;51.690;5.202;2023-12-07T03:33:17;246.82;;;28.88;;
74995;SDS011;63545;51.690;5.202;2023-12-07T03:35:42;163.00;;;25.73;;
74995;SDS011;63545;51.690;5.202;2023-12-07T03:38:08;137.60;;;26.30;;
74995;SDS011;63545;51.690;5.202;2023-12-07T03:40:33;189.43;;;25.50;;
74995;SDS011;63545;51.690;5.202;2023-12-07T03:42:58;178.27;;;25.87;;
74995;SDS011;63545;51.690;5.202;2023-12-07T03:45:24;239.80;;;27.33;;
74995;SDS011;63545;51.690;5.202;2023-12-07T03:47:49;175.27;;;25.17;;
74995;SDS011;63545;51.690;5.202;2023-12-07T03:50:15;146.93;;;25.60;;
74995;SDS011;63545;51.690;5.202;2023-12-07T03:52:40;190.03;;;26.63;;
74995;SDS011;63545;51.690;5.202;2023-12-07T03:55:06;181.47;;;25.47;;
74995;SDS011;63545;51.690;5.202;2023-12-07T03:57:31;174.80;;;26.25;;
74995;SDS011;63545;51.690;5.202;2023-12-07T03:59:57;210.17;;;24.97;;
74995;SDS011;63545;51.690;5.202;2023-12-07T04:02:22;170.40;;;24.77;;
74995;SDS011;63545;51.690;5.202;2023-12-07T04:04:47;177.70;;;23.80;;
74995;SDS011;63545;51.690;5.202;2023-12-07T04:07:13;153.55;;;19.08;;
74995;SDS011;63545;51.690;5.202;2023-12-07T04:09:38;237.63;;;24.03;;
74995;SDS011;63545;51.690;5.202;2023-12-07T04:12:03;152.20;;;23.63;;
74995;SDS011;63545;51.690;5.202;2023-12-07T04:14:29;210.17;;;25.20;;
74995;SDS011;63545;51.690;5.202;2023-12-07T04:16:54;121.07;;;23.33;;
74995;SDS011;63545;51.690;5.202;2023-12-07T04:19:20;178.10;;;23.13;;
74995;SDS011;63545;51.690;5.202;2023-12-07T04:21:45;190.43;;;22.00;;
74995;SDS011;63545;51.690;5.202;2023-12-07T04:24:10;187.80;;;24.30;;
74995;SDS011;63545;51.690;5.202;2023-12-07T04:26:36;162.50;;;24.53;;
74995;SDS011;63545;51.690;5.202;2023-12-07T04:29:01;219.47;;;26.53;;
74995;SDS011;63545;51.690;5.202;2023-12-07T04:31:27;196.30;;;23.95;;
74995;SDS011;63545;51.690;5.202;2023-12-07T04:33:52;206.90;;;24.70;;
74995;SDS011;63545;51.690;5.202;2023-12-07T04:36:18;199.00;;;24.00;;
74995;SDS011;63545;51.690;5.202;2023-12-07T04:38:43;127.73;;;21.57;;
74995;SDS011;63545;51.690;5.202;2023-12-07T04:41:08;208.30;;;23.83;;
74995;SDS011;63545;51.690;5.202;2023-12-07T04:43:33;171.13;;;21.97;;
74995;SDS011;63545;51.690;5.202;2023-12-07T04:45:59;228.80;;;23.67;;
74995;SDS011;63545;51.690;5.202;2023-12-07T04:48:24;193.13;;;23.33;;
74995;SDS011;63545;51.690;5.202;2023-12-07T04:50:50;176.30;;;23.10;;
74995;SDS011;63545;51.690;5.202;2023-12-07T04:53:16;207.20;;;20.60;;
74995;SDS011;63545;51.690;5.202;2023-12-07T04:55:41;196.83;;;22.00;;
74995;SDS011;63545;51.690;5.202;2023-12-07T04:58:11;295.85;;;22.48;;
74995;SDS011;63545;51.690;5.202;2023-12-07T05:00:37;222.37;;;20.37;;
74995;SDS011;63545;51.690;5.202;2023-12-07T05:03:02;176.77;;;20.63;;
74995;SDS011;63545;51.690;5.202;2023-12-07T05:05:28;146.23;;;19.97;;
74995;SDS011;63545;51.690;5.202;2023-12-07T05:07:53;146.27;;;20.10;;
74995;SDS011;63545;51.690;5.202;2023-12-07T05:10:18;226.73;;;21.73;;
74995;SDS011;63545;51.690;5.202;2023-12-07T05:12:44;198.93;;;20.87;;
74995;SDS011;63545;51.690;5.202;2023-12-07T05:15:09;189.73;;;21.10;;
74995;SDS011;63545;51.690;5.202;2023-12-07T05:17:35;130.07;;;19.73;;
74995;SDS011;63545;51.690;5.202;2023-12-07T05:20:00;189.10;;;19.10;;
74995;SDS011;63545;51.690;5.202;2023-12-07T05:22:26;196.57;;;20.13;;
74995;SDS011;63545;51.690;5.202;2023-12-07T05:24:52;138.25;;;18.73;;
74995;SDS011;63545;51.690;5.202;2023-12-07T05:27:17;220.40;;;19.58;;
74995;SDS011;63545;51.690;5.202;2023-12-07T05:29:43;176.30;;;17.47;;
74995;SDS011;63545;51.690;5.202;2023-12-07T05:32:08;186.67;;;16.93;;
74995;SDS011;63545;51.690;5.202;2023-12-07T05:34:34;209.70;;;17.30;;
74995;SDS011;63545;51.690;5.202;2023-12-07T05:37:00;164.80;;;15.13;;
74995;SDS011;63545;51.690;5.202;2023-12-07T05:39:25;160.60;;;17.10;;
74995;SDS011;63545;51.690;5.202;2023-12-07T05:41:51;113.63;;;14.57;;
74995;SDS011;63545;51.690;5.202;2023-12-07T05:44:16;108.95;;;13.82;;
74995;SDS011;63545;51.690;5.202;2023-12-07T05:46:46;168.02;;;16.15;;
74995;SDS011;63545;51.690;5.202;2023-12-07T05:49:12;128.10;;;14.25;;
74995;SDS011;63545;51.690;5.202;2023-12-07T05:51:37;159.68;;;15.55;;
74995;SDS011;63545;51.690;5.202;2023-12-07T05:54:03;161.27;;;15.10;;
74995;SDS011;63545;51.690;5.202;2023-12-07T05:56:28;171.90;;;14.75;;
74995;SDS011;63545;51.690;5.202;2023-12-07T05:58:54;117.37;;;13.47;;
74995;SDS011;63545;51.690;5.202;2023-12-07T06:01:19;79.73;;;12.37;;
74995;SDS011;63545;51.690;5.202;2023-12-07T06:03:45;70.20;;;11.43;;
74995;SDS011;63545;51.690;5.202;2023-12-07T06:06:10;101.10;;;12.57;;
74995;SDS011;63545;51.690;5.202;2023-12-07T06:08:39;119.20;;;11.93;;
74995;SDS011;63545;51.690;5.202;2023-12-07T06:11:05;118.95;;;11.90;;
74995;SDS011;63545;51.690;5.202;2023-12-07T06:13:30;118.30;;;12.97;;
74995;SDS011;63545;51.690;5.202;2023-12-07T06:15:56;141.82;;;12.75;;
74995;SDS011;63545;51.690;5.202;2023-12-07T06:18:21;103.17;;;11.13;;
74995;SDS011;63545;51.690;5.202;2023-12-07T06:20:46;77.30;;;10.93;;
74995;SDS011;63545;51.690;5.202;2023-12-07T06:23:12;94.83;;;11.80;;
74995;SDS011;63545;51.690;5.202;2023-12-07T06:25:38;67.60;;;11.75;;
74995;SDS011;63545;51.690;5.202;2023-12-07T06:28:04;82.68;;;11.25;;
74995;SDS011;63545;51.690;5.202;2023-12-07T06:30:29;100.63;;;11.82;;
74995;SDS011;63545;51.690;5.202;2023-12-07T06:32:55;110.13;;;12.90;;
74995;SDS011;63545;51.690;5.202;2023-12-07T06:35:20;104.23;;;12.60;;
74995;SDS011;63545;51.690;5.202;2023-12-07T06:37:45;130.23;;;12.40;;
74995;SDS011;63545;51.690;5.202;2023-12-07T06:40:11;120.15;;;13.80;;
74995;SDS011;63545;51.690;5.202;2023-12-07T06:42:37;94.03;;;11.63;;
74995;SDS011;63545;51.690;5.202;2023-12-07T06:45:03;115.67;;;11.83;;
74995;SDS011;63545;51.690;5.202;2023-12-07T06:47:29;105.90;;;12.38;;
74995;SDS011;63545;51.690;5.202;2023-12-07T06:49:54;113.97;;;12.37;;
74995;SDS011;63545;51.690;5.202;2023-12-07T06:52:20;94.80;;;13.10;;
74995;SDS011;63545;51.690;5.202;2023-12-07T06:54:46;97.90;;;12.63;;
74995;SDS011;63545;51.690;5.202;2023-12-07T06:57:11;86.50;;;11.73;;
74995;SDS011;63545;51.690;5.202;2023-12-07T06:59:37;123.63;;;14.03;;
74995;SDS011;63545;51.690;5.202;2023-12-07T07:02:02;145.77;;;13.77;;
74995;SDS011;63545;51.690;5.202;2023-12-07T07:04:28;172.00;;;14.23;;
74995;SDS011;63545;51.690;5.202;2023-12-07T07:06:54;146.10;;;13.98;;
74995;SDS011;63545;51.690;5.202;2023-12-07T07:09:20;107.20;;;13.93;;
74995;SDS011;63545;51.690;5.202;2023-12-07T07:11:48;124.55;;;14.02;;
74995;SDS011;63545;51.690;5.202;2023-12-07T07:14:14;154.52;;;16.20;;
74995;SDS011;63545;51.690;5.202;2023-12-07T07:16:41;86.90;;;13.98;;
74995;SDS011;63545;51.690;5.202;2023-12-07T07:19:06;117.95;;;14.63;;
74995;SDS011;63545;51.690;5.202;2023-12-07T07:21:31;139.73;;;15.23;;
74995;SDS011;63545;51.690;5.202;2023-12-07T07:23:57;87.30;;;14.63;;
74995;SDS011;63545;51.690;5.202;2023-12-07T07:26:22;140.93;;;16.40;;
74995;SDS011;63545;51.690;5.202;2023-12-07T07:28:50;115.00;;;14.97;;
74995;SDS011;63545;51.690;5.202;2023-12-07T07:31:16;150.07;;;15.15;;
74995;SDS011;63545;51.690;5.202;2023-12-07T07:33:42;128.13;;;14.65;;
74995;SDS011;63545;51.690;5.202;2023-12-07T07:36:08;156.90;;;15.47;;
74995;SDS011;63545;51.690;5.202;2023-12-07T07:38:33;116.10;;;14.17;;
74995;SDS011;63545;51.690;5.202;2023-12-07T07:40:59;158.50;;;14.23;;
74995;SDS011;63545;51.690;5.202;2023-12-07T07:43:24;101.57;;;13.50;;
74995;SDS011;63545;51.690;5.202;2023-12-07T07:45:49;102.00;;;13.00;;
74995;SDS011;63545;51.690;5.202;2023-12-07T07:48:15;121.67;;;13.73;;
74995;SDS011;63545;51.690;5.202;2023-12-07T07:50:40;123.67;;;12.77;;
74995;SDS011;63545;51.690;5.202;2023-12-07T07:53:05;95.87;;;13.33;;
74995;SDS011;63545;51.690;5.202;2023-12-07T07:55:31;101.10;;;13.47;;
74995;SDS011;63545;51.690;5.202;2023-12-07T07:57:56;102.75;;;13.00;;
74995;SDS011;63545;51.690;5.202;2023-12-07T08:00:21;88.10;;;12.50;;
74995;SDS011;63545;51.690;5.202;2023-12-07T08:02:49;86.18;;;12.65;;
74995;SDS011;63545;51.690;5.202;2023-12-07T08:05:15;92.10;;;12.50;;
74995;SDS011;63545;51.690;5.202;2023-12-07T08:07:40;67.17;;;12.33;;
74995;SDS011;63545;51.690;5.202;2023-12-07T08:10:06;113.55;;;12.38;;
74995;SDS011;63545;51.690;5.202;2023-12-07T08:12:32;80.68;;;12.10;;
74995;SDS011;63545;51.690;5.202;2023-12-07T08:14:58;73.97;;;11.30;;
74995;SDS011;63545;51.690;5.202;2023-12-07T08:17:23;83.03;;;11.60;;
74995;SDS011;63545;51.690;5.202;2023-12-07T08:19:51;60.45;;;11.35;;
74995;SDS011;63545;51.690;5.202;2023-12-07T08:22:16;76.32;;;11.82;;
74995;SDS011;63545;51.690;5.202;2023-12-07T08:24:42;70.13;;;11.20;;
74995;SDS011;63545;51.690;5.202;2023-12-07T08:27:07;67.07;;;11.57;;
74995;SDS011;63545;51.690;5.202;2023-12-07T08:29:32;79.30;;;12.70;;
74995;SDS011;63545;51.690;5.202;2023-12-07T08:31:58;70.68;;;11.88;;
74995;SDS011;63545;51.690;5.202;2023-12-07T08:34:23;56.80;;;11.17;;
74995;SDS011;63545;51.690;5.202;2023-12-07T08:36:50;72.50;;;11.90;;
74995;SDS011;63545;51.690;5.202;2023-12-07T08:39:15;83.75;;;12.07;;
74995;SDS011;63545;51.690;5.202;2023-12-07T08:41:41;78.37;;;13.50;;
74995;SDS011;63545;51.690;5.202;2023-12-07T08:44:06;92.23;;;13.73;;
74995;SDS011;63545;51.690;5.202;2023-12-07T08:46:31;64.10;;;13.37;;
74995;SDS011;63545;51.690;5.202;2023-12-07T08:48:56;61.40;;;12.73;;
74995;SDS011;63545;51.690;5.202;2023-12-07T08:51:22;56.93;;;13.30;;
74995;SDS011;63545;51.690;5.202;2023-12-07T08:53:48;72.70;;;13.10;;
74995;SDS011;63545;51.690;5.202;2023-12-07T08:56:14;67.07;;;12.70;;
74995;SDS011;63545;51.690;5.202;2023-12-07T08:58:40;55.87;;;12.47;;
74995;SDS011;63545;51.690;5.202;2023-12-07T09:01:06;59.22;;;13.20;;
74995;SDS011;63545;51.690;5.202;2023-12-07T09:03:31;58.90;;;12.50;;
74995;SDS011;63545;51.690;5.202;2023-12-07T09:05:58;59.70;;;12.57;;
74995;SDS011;63545;51.690;5.202;2023-12-07T09:08:24;54.28;;;12.88;;
74995;SDS011;63545;51.690;5.202;2023-12-07T09:10:49;53.95;;;12.32;;
74995;SDS011;63545;51.690;5.202;2023-12-07T09:13:16;54.53;;;13.20;;
74995;SDS011;63545;51.690;5.202;2023-12-07T09:15:42;59.27;;;13.20;;
74995;SDS011;63545;51.690;5.202;2023-12-07T09:18:07;77.90;;;13.23;;
74995;SDS011;63545;51.690;5.202;2023-12-07T09:20:33;52.30;;;11.27;;
74995;SDS011;63545;51.690;5.202;2023-12-07T09:22:58;44.00;;;11.77;;
74995;SDS011;63545;51.690;5.202;2023-12-07T09:25:23;51.30;;;13.27;;
74995;SDS011;63545;51.690;5.202;2023-12-07T09:27:52;57.10;;;14.10;;
74995;SDS011;63545;51.690;5.202;2023-12-07T09:30:18;55.53;;;13.97;;
74995;SDS011;63545;51.690;5.202;2023-12-07T09:32:43;50.63;;;13.07;;
74995;SDS011;63545;51.690;5.202;2023-12-07T09:35:09;53.70;;;12.87;;
74995;SDS011;63545;51.690;5.202;2023-12-07T09:37:44;58.20;;;13.82;;
74995;SDS011;63545;51.690;5.202;2023-12-07T09:40:14;50.90;;;14.38;;
74995;SDS011;63545;51.690;5.202;2023-12-07T09:42:41;62.10;;;15.05;;
74995;SDS011;63545;51.690;5.202;2023-12-07T09:45:08;68.63;;;15.98;;
74995;SDS011;63545;51.690;5.202;2023-12-07T09:47:33;71.72;;;17.67;;
74995;SDS011;63545;51.690;5.202;2023-12-07T09:49:59;56.23;;;15.33;;
74995;SDS011;63545;51.690;5.202;2023-12-07T09:52:25;64.60;;;16.03;;
74995;SDS011;63545;51.690;5.202;2023-12-07T09:54:50;58.40;;;15.57;;
74995;SDS011;63545;51.690;5.202;2023-12-07T09:57:16;57.58;;;15.85;;
74995;SDS011;63545;51.690;5.202;2023-12-07T09:59:42;59.53;;;15.60;;
74995;SDS011;63545;51.690;5.202;2023-12-07T10:02:07;57.63;;;15.60;;
74995;SDS011;63545;51.690;5.202;2023-12-07T10:04:33;56.03;;;14.83;;
74995;SDS011;63545;51.690;5.202;2023-12-07T10:06:58;52.50;;;14.60;;
74995;SDS011;63545;51.690;5.202;2023-12-07T10:09:23;57.20;;;14.60;;
74995;SDS011;63545;51.690;5.202;2023-12-07T10:11:49;57.75;;;14.90;;
74995;SDS011;63545;51.690;5.202;2023-12-07T10:14:14;54.20;;;14.53;;
74995;SDS011;63545;51.690;5.202;2023-12-07T10:16:52;53.20;;;15.13;;
74995;SDS011;63545;51.690;5.202;2023-12-07T10:19:20;57.67;;;14.50;;
74995;SDS011;63545;51.690;5.202;2023-12-07T10:21:49;53.28;;;16.05;;
74995;SDS011;63545;51.690;5.202;2023-12-07T10:24:18;50.35;;;14.45;;
74995;SDS011;63545;51.690;5.202;2023-12-07T10:26:45;53.33;;;14.13;;
74995;SDS011;63545;51.690;5.202;2023-12-07T10:29:11;54.88;;;15.45;;
74995;SDS011;63545;51.690;5.202;2023-12-07T10:31:36;57.10;;;15.13;;
74995;SDS011;63545;51.690;5.202;2023-12-07T10:34:02;50.10;;;14.87;;
74995;SDS011;63545;51.690;5.202;2023-12-07T10:36:29;49.95;;;15.25;;
74995;SDS011;63545;51.690;5.202;2023-12-07T10:38:54;55.73;;;15.87;;
74995;SDS011;63545;51.690;5.202;2023-12-07T10:41:20;52.03;;;15.53;;
74995;SDS011;63545;51.690;5.202;2023-12-07T10:43:48;49.38;;;14.82;;
74995;SDS011;63545;51.690;5.202;2023-12-07T10:46:19;54.00;;;15.77;;
74995;SDS011;63545;51.690;5.202;2023-12-07T10:48:46;51.63;;;16.48;;
74995;SDS011;63545;51.690;5.202;2023-12-07T10:51:14;53.22;;;16.35;;
74995;SDS011;63545;51.690;5.202;2023-12-07T10:53:45;52.45;;;16.40;;
74995;SDS011;63545;51.690;5.202;2023-12-07T10:56:11;56.28;;;16.65;;
74995;SDS011;63545;51.690;5.202;2023-12-07T10:58:40;49.53;;;15.05;;
74995;SDS011;63545;51.690;5.202;2023-12-07T11:01:07;52.08;;;16.20;;
74995;SDS011;63545;51.690;5.202;2023-12-07T11:03:34;48.65;;;16.45;;
74995;SDS011;63545;51.690;5.202;2023-12-07T11:06:01;49.25;;;15.60;;
74995;SDS011;63545;51.690;5.202;2023-12-07T11:08:43;52.75;;;17.35;;
74995;SDS011;63545;51.690;5.202;2023-12-07T11:13:49;49.55;;;15.90;;
74995;SDS011;63545;51.690;5.202;2023-12-07T11:16:28;57.20;;;18.02;;
74995;SDS011;63545;51.690;5.202;2023-12-07T11:18:57;48.95;;;16.42;;
74995;SDS011;63545;51.690;5.202;2023-12-07T11:21:23;54.30;;;16.63;;
74995;SDS011;63545;51.690;5.202;2023-12-07T11:23:49;49.57;;;16.43;;
74995;SDS011;63545;51.690;5.202;2023-12-07T11:26:14;52.10;;;16.83;;
74995;SDS011;63545;51.690;5.202;2023-12-07T11:28:39;46.70;;;17.10;;
74995;SDS011;63545;51.690;5.202;2023-12-07T11:31:08;46.80;;;16.42;;
74995;SDS011;63545;51.690;5.202;2023-12-07T11:33:36;41.60;;;14.77;;
74995;SDS011;63545;51.690;5.202;2023-12-07T11:36:03;45.30;;;16.52;;
74995;SDS011;63545;51.690;5.202;2023-12-07T11:38:32;45.78;;;16.73;;
74995;SDS011;63545;51.690;5.202;2023-12-07T11:40:59;42.80;;;16.37;;
74995;SDS011;63545;51.690;5.202;2023-12-07T11:45:58;42.15;;;16.40;;
74995;SDS011;63545;51.690;5.202;2023-12-07T11:48:24;43.90;;;16.83;;
74995;SDS011;63545;51.690;5.202;2023-12-07T11:53:24;41.75;;;16.33;;
74995;SDS011;63545;51.690;5.202;2023-12-07T11:55:50;38.92;;;15.70;;
74995;SDS011;63545;51.690;5.202;2023-12-07T11:58:16;41.95;;;16.35;;
74995;SDS011;63545;51.690;5.202;2023-12-07T12:00:41;39.90;;;16.08;;
74995;SDS011;63545;51.690;5.202;2023-12-07T12:03:07;42.23;;;17.00;;
74995;SDS011;63545;51.690;5.202;2023-12-07T12:05:32;39.93;;;15.83;;
74995;SDS011;63545;51.690;5.202;2023-12-07T12:07:57;34.07;;;14.90;;
74995;SDS011;63545;51.690;5.202;2023-12-07T12:10:22;34.57;;;15.33;;
74995;SDS011;63545;51.690;5.202;2023-12-07T12:12:50;34.72;;;14.88;;
74995;SDS011;63545;51.690;5.202;2023-12-07T12:15:16;30.83;;;14.38;;
74995;SDS011;63545;51.690;5.202;2023-12-07T12:17:42;35.60;;;15.43;;
74995;SDS011;63545;51.690;5.202;2023-12-07T12:20:08;34.30;;;14.73;;
74995;SDS011;63545;51.690;5.202;2023-12-07T12:22:36;34.67;;;14.60;;
74995;SDS011;63545;51.690;5.202;2023-12-07T12:25:01;31.80;;;14.77;;
74995;SDS011;63545;51.690;5.202;2023-12-07T12:27:27;35.08;;;15.38;;
74995;SDS011;63545;51.690;5.202;2023-12-07T12:29:53;33.33;;;14.82;;
74995;SDS011;63545;51.690;5.202;2023-12-07T12:32:19;32.77;;;15.03;;
74995;SDS011;63545;51.690;5.202;2023-12-07T12:34:50;34.88;;;15.82;;
74995;SDS011;63545;51.690;5.202;2023-12-07T12:37:16;29.15;;;15.30;;
74995;SDS011;63545;51.690;5.202;2023-12-07T12:39:41;33.97;;;15.10;;
74995;SDS011;63545;51.690;5.202;2023-12-07T12:42:06;32.97;;;15.87;;
74995;SDS011;63545;51.690;5.202;2023-12-07T12:44:32;30.97;;;16.10;;
74995;SDS011;63545;51.690;5.202;2023-12-07T12:46:58;31.67;;;16.48;;
74995;SDS011;63545;51.690;5.202;2023-12-07T12:49:34;34.38;;;16.63;;
74995;SDS011;63545;51.690;5.202;2023-12-07T12:51:59;28.95;;;14.25;;
74995;SDS011;63545;51.690;5.202;2023-12-07T12:54:30;30.07;;;15.47;;
74995;SDS011;63545;51.690;5.202;2023-12-07T12:56:56;28.40;;;14.40;;
74995;SDS011;63545;51.690;5.202;2023-12-07T12:59:22;33.38;;;15.50;;
74995;SDS011;63545;51.690;5.202;2023-12-07T13:01:47;28.00;;;14.07;;
74995;SDS011;63545;51.690;5.202;2023-12-07T13:04:13;30.40;;;14.77;;
74995;SDS011;63545;51.690;5.202;2023-12-07T13:06:39;27.93;;;13.47;;
74995;SDS011;63545;51.690;5.202;2023-12-07T13:09:04;30.80;;;15.18;;
74995;SDS011;63545;51.690;5.202;2023-12-07T13:11:30;27.80;;;14.25;;
74995;SDS011;63545;51.690;5.202;2023-12-07T13:13:55;27.90;;;14.37;;
74995;SDS011;63545;51.690;5.202;2023-12-07T13:16:20;28.80;;;14.00;;
74995;SDS011;63545;51.690;5.202;2023-12-07T13:18:46;25.43;;;14.30;;
74995;SDS011;63545;51.690;5.202;2023-12-07T13:21:11;27.10;;;14.50;;
74995;SDS011;63545;51.690;5.202;2023-12-07T13:23:37;30.92;;;14.60;;
74995;SDS011;63545;51.690;5.202;2023-12-07T13:26:03;30.93;;;15.10;;
74995;SDS011;63545;51.690;5.202;2023-12-07T13:28:29;36.03;;;15.00;;
74995;SDS011;63545;51.690;5.202;2023-12-07T13:30:54;32.20;;;15.50;;
74995;SDS011;63545;51.690;5.202;2023-12-07T13:33:20;30.90;;;15.37;;
74995;SDS011;63545;51.690;5.202;2023-12-07T13:35:45;31.30;;;15.57;;
74995;SDS011;63545;51.690;5.202;2023-12-07T13:38:10;34.97;;;16.80;;
74995;SDS011;63545;51.690;5.202;2023-12-07T13:40:36;37.03;;;16.48;;
74995;SDS011;63545;51.690;5.202;2023-12-07T13:43:02;31.63;;;15.97;;
74995;SDS011;63545;51.690;5.202;2023-12-07T13:45:28;37.15;;;16.70;;
74995;SDS011;63545;51.690;5.202;2023-12-07T13:47:53;33.17;;;16.50;;
74995;SDS011;63545;51.690;5.202;2023-12-07T13:50:18;33.13;;;16.17;;
74995;SDS011;63545;51.690;5.202;2023-12-07T13:52:44;34.55;;;16.08;;
74995;SDS011;63545;51.690;5.202;2023-12-07T13:55:09;31.17;;;15.37;;
74995;SDS011;63545;51.690;5.202;2023-12-07T13:57:35;35.13;;;16.53;;
74995;SDS011;63545;51.690;5.202;2023-12-07T14:00:00;37.77;;;15.63;;
74995;SDS011;63545;51.690;5.202;2023-12-07T14:02:25;33.47;;;16.00;;
74995;SDS011;63545;51.690;5.202;2023-12-07T14:04:51;33.43;;;15.77;;
74995;SDS011;63545;51.690;5.202;2023-12-07T14:07:17;29.63;;;14.93;;
74995;SDS011;63545;51.690;5.202;2023-12-07T14:09:44;34.30;;;14.98;;
74995;SDS011;63545;51.690;5.202;2023-12-07T14:12:11;29.23;;;14.88;;
74995;SDS011;63545;51.690;5.202;2023-12-07T14:14:45;29.73;;;14.70;;
74995;SDS011;63545;51.690;5.202;2023-12-07T14:17:15;29.60;;;14.65;;
74995;SDS011;63545;51.690;5.202;2023-12-07T14:19:42;32.65;;;14.70;;
74995;SDS011;63545;51.690;5.202;2023-12-07T14:22:08;34.05;;;16.42;;